createdAt,value
2022-09-20T00:01:32.194Z,100.00
2022-09-20T00:04:02.386Z,100.00
2022-09-20T00:06:31.685Z,100.00
2022-09-20T00:09:01.289Z,100.00
2022-09-20T00:11:31.794Z,100.00
2022-09-20T00:14:01.431Z,100.00
2022-09-20T00:16:35.537Z,100.00
2022-09-20T00:19:05.395Z,100.00
2022-09-20T00:21:36.529Z,100.00
2022-09-20T00:24:05.936Z,100.00
2022-09-20T00:26:34.072Z,100.00
2022-09-20T00:29:02.758Z,100.00
2022-09-20T00:31:30.599Z,100.00
2022-09-20T00:34:15.180Z,100.00
2022-09-20T00:36:44.385Z,100.00
2022-09-20T00:39:14.314Z,100.00
2022-09-20T00:41:42.694Z,100.00
2022-09-20T00:44:45.553Z,100.00
2022-09-20T00:47:35.034Z,100.00
2022-09-20T00:50:14.761Z,100.00
2022-09-20T00:52:46.260Z,100.00
2022-09-20T00:55:16.376Z,100.00
2022-09-20T00:57:45.234Z,100.00
2022-09-20T01:00:14.481Z,100.00
2022-09-20T01:02:48.002Z,100.00
2022-09-20T01:05:16.327Z,100.00
2022-09-20T01:07:46.019Z,100.00
2022-09-20T01:10:13.866Z,100.00
2022-09-20T01:12:44.278Z,100.00
2022-09-20T01:15:15.550Z,100.00
2022-09-20T01:17:49.823Z,100.00
2022-09-20T01:20:23.637Z,100.00
2022-09-20T01:23:10.443Z,100.00
2022-09-20T01:26:10.085Z,100.00
2022-09-20T01:28:39.895Z,100.00
2022-09-20T01:31:26.802Z,100.00
2022-09-20T01:33:59.758Z,100.00
2022-09-20T01:36:44.111Z,100.00
2022-09-20T01:39:17.937Z,100.00
2022-09-20T01:41:59.365Z,100.00
2022-09-20T01:44:33.564Z,100.00
2022-09-20T01:47:21.230Z,100.00
2022-09-20T01:50:07.612Z,100.00
2022-09-20T01:52:51.322Z,100.00
2022-09-20T01:55:37.911Z,100.00
2022-09-20T01:58:08.407Z,100.00
2022-09-20T02:00:51.394Z,100.00
2022-09-20T02:03:49.134Z,100.00
2022-09-20T02:06:37.850Z,100.00
2022-09-20T02:09:15.483Z,100.00
2022-09-20T02:12:05.802Z,100.00
2022-09-20T02:15:05.584Z,100.00
2022-09-20T02:17:56.292Z,100.00
2022-09-20T02:20:55.941Z,100.00
2022-09-20T02:23:44.573Z,100.00
2022-09-20T02:26:36.815Z,100.00
2022-09-20T02:29:27.472Z,100.00
2022-09-20T02:32:01.290Z,100.00
2022-09-20T02:34:38.219Z,100.00
2022-09-20T02:37:11.966Z,100.00
2022-09-20T02:40:08.368Z,100.00
2022-09-20T02:42:39.055Z,100.00
2022-09-20T02:45:22.780Z,100.00
2022-09-20T02:47:57.031Z,100.00
2022-09-20T02:50:40.674Z,100.00
2022-09-20T02:53:33.508Z,100.00
2022-09-20T02:56:17.464Z,100.00
2022-09-20T02:59:17.165Z,100.00
2022-09-20T03:02:09.186Z,100.00
2022-09-20T03:05:09.741Z,100.00
2022-09-20T03:07:53.367Z,100.00
2022-09-20T03:10:57.597Z,100.00
2022-09-20T03:14:07.530Z,100.00
2022-09-20T03:16:58.652Z,100.00
2022-09-20T03:19:36.364Z,100.00
2022-09-20T03:22:26.335Z,100.00
2022-09-20T03:25:09.638Z,100.00
2022-09-20T03:27:53.295Z,100.00
2022-09-20T03:30:37.027Z,100.00
2022-09-20T03:33:26.896Z,100.00
2022-09-20T03:36:25.527Z,100.00
2022-09-20T03:39:24.215Z,100.00
2022-09-20T03:42:16.025Z,100.00
2022-09-20T03:45:05.688Z,100.00
2022-09-20T03:47:52.380Z,100.00
2022-09-20T03:50:42.272Z,100.00
2022-09-20T03:53:19.042Z,100.00
2022-09-20T03:56:01.735Z,100.00
2022-09-20T03:58:46.438Z,100.00
2022-09-20T04:01:30.136Z,100.00
2022-09-20T04:04:13.666Z,100.00
2022-09-20T04:07:00.506Z,100.00
2022-09-20T04:09:43.758Z,100.00
2022-09-20T04:12:39.058Z,100.00
2022-09-20T04:15:12.801Z,100.00
2022-09-20T04:18:03.603Z,100.00
2022-09-20T04:20:40.153Z,100.00
2022-09-20T04:23:16.274Z,100.00
2022-09-20T04:25:48.374Z,100.00
2022-09-20T04:28:32.222Z,100.00
2022-09-20T04:31:05.950Z,100.00
2022-09-20T04:33:43.103Z,100.00
2022-09-20T04:36:36.759Z,100.00
2022-09-20T04:39:26.404Z,100.00
2022-09-20T04:42:15.314Z,100.00
2022-09-20T04:45:16.665Z,100.00
2022-09-20T04:48:01.383Z,100.00
2022-09-20T04:50:48.066Z,100.00
2022-09-20T04:53:18.976Z,100.00
2022-09-20T04:55:53.827Z,100.00
2022-09-20T04:58:37.539Z,100.00
2022-09-20T05:01:16.545Z,100.00
2022-09-20T05:04:01.530Z,100.00
2022-09-20T05:06:45.274Z,100.00
2022-09-20T05:09:44.962Z,100.00
2022-09-20T05:12:46.439Z,100.00
2022-09-20T05:15:35.186Z,100.00
2022-09-20T05:18:18.213Z,100.00
2022-09-20T05:20:53.034Z,100.00
2022-09-20T05:23:39.843Z,100.00
2022-09-20T05:26:40.582Z,100.00
2022-09-20T05:29:20.549Z,100.00
2022-09-20T05:32:01.990Z,100.00
2022-09-20T05:34:53.712Z,100.00
2022-09-20T05:37:39.875Z,100.00
2022-09-20T05:40:39.328Z,100.00
2022-09-20T05:43:13.251Z,100.00
2022-09-20T05:45:57.085Z,100.00
2022-09-20T05:48:24.910Z,100.00
2022-09-20T05:51:16.473Z,100.00
2022-09-20T05:54:16.133Z,100.00
2022-09-20T05:57:11.579Z,100.00
2022-09-20T06:00:11.269Z,100.00
2022-09-20T06:03:00.933Z,100.00
2022-09-20T06:05:43.658Z,100.00
2022-09-20T06:08:27.387Z,100.00
2022-09-20T06:11:11.208Z,100.00
2022-09-20T06:13:59.869Z,100.00
2022-09-20T06:16:49.246Z,100.00
2022-09-20T06:19:48.956Z,100.00
2022-09-20T06:22:20.205Z,100.00
2022-09-20T06:25:08.149Z,100.00
2022-09-20T06:27:42.845Z,100.00
2022-09-20T06:30:29.802Z,100.00
2022-09-20T06:33:00.261Z,100.00
2022-09-20T06:35:38.104Z,100.00
2022-09-20T06:38:37.875Z,100.00
2022-09-20T06:41:21.930Z,100.00
2022-09-20T06:43:49.966Z,100.00
2022-09-20T06:46:17.764Z,100.00
2022-09-20T06:48:45.541Z,100.00
2022-09-20T06:51:13.295Z,100.00
2022-09-20T06:53:42.204Z,100.00
2022-09-20T06:56:16.972Z,100.00
2022-09-20T06:58:44.765Z,100.00
2022-09-20T07:01:13.751Z,100.00
2022-09-20T07:03:42.587Z,100.00
2022-09-20T07:06:11.186Z,100.00
2022-09-20T07:08:39.300Z,100.00
2022-09-20T07:11:11.833Z,100.00
2022-09-20T07:13:39.567Z,100.00
2022-09-20T07:16:10.667Z,100.00
2022-09-20T07:18:39.197Z,100.00
2022-09-20T07:21:11.019Z,100.00
2022-09-20T07:23:39.227Z,100.00
2022-09-20T07:26:16.647Z,100.00
2022-09-20T07:28:44.359Z,100.00
2022-09-20T07:31:12.114Z,100.00
2022-09-20T07:33:40.143Z,100.00
2022-09-20T07:36:07.975Z,100.00
2022-09-20T07:38:35.764Z,100.00
2022-09-20T07:41:05.718Z,100.00
2022-09-20T07:43:34.231Z,100.00
2022-09-20T07:46:02.977Z,100.00
2022-09-20T07:48:34.303Z,100.00
2022-09-20T07:51:14.317Z,100.00
2022-09-20T07:54:16.054Z,100.00
2022-09-20T07:56:44.771Z,100.00
2022-09-20T07:59:16.672Z,100.00
2022-09-20T08:01:44.464Z,100.00
2022-09-20T08:04:12.828Z,100.00
2022-09-20T08:06:43.763Z,100.00
2022-09-20T08:09:13.569Z,100.00
2022-09-20T08:11:43.556Z,100.00
2022-09-20T08:14:16.328Z,100.00
2022-09-20T08:16:47.507Z,100.00
2022-09-20T08:19:21.088Z,100.00
2022-09-20T08:21:52.640Z,100.00
2022-09-20T08:24:20.900Z,100.00
2022-09-20T08:26:48.883Z,100.00
2022-09-20T08:29:16.696Z,100.00
2022-09-20T08:31:44.687Z,100.00
2022-09-20T08:34:15.135Z,100.00
2022-09-20T08:36:46.651Z,100.00
2022-09-20T08:42:22.138Z,100.00
2022-09-20T08:44:59.510Z,100.00
2022-09-20T08:47:31.247Z,100.00
2022-09-20T08:50:09.242Z,100.00
2022-09-20T08:52:40.046Z,100.00
2022-09-20T08:55:22.379Z,100.00
2022-09-20T08:57:53.465Z,100.00
2022-09-20T09:00:26.384Z,100.00
2022-09-20T09:02:57.157Z,100.00
2022-09-20T09:05:33.348Z,100.00
2022-09-20T09:08:09.136Z,100.00
2022-09-20T09:10:43.077Z,100.00
2022-09-20T09:13:20.765Z,100.00
2022-09-20T09:15:54.544Z,100.00
2022-09-20T09:18:31.746Z,100.00
2022-09-20T09:21:04.099Z,100.00
2022-09-20T09:23:43.069Z,99.95
2022-09-20T09:26:27.301Z,99.94
2022-09-20T09:29:23.394Z,99.20
2022-09-20T09:31:54.540Z,99.99
2022-09-20T09:34:31.600Z,99.61
2022-09-20T09:37:00.324Z,99.40
2022-09-20T09:39:33.606Z,99.76
2022-09-20T09:42:20.405Z,98.84
2022-09-20T09:44:50.447Z,98.03
2022-09-20T09:47:31.185Z,97.74
2022-09-20T09:50:03.645Z,98.20
2022-09-20T09:52:33.988Z,98.95
2022-09-20T09:55:05.627Z,97.51
2022-09-20T09:57:55.731Z,99.10
2022-09-20T10:00:27.273Z,98.69
2022-09-20T10:03:11.134Z,96.94
2022-09-20T10:05:59.152Z,97.18
2022-09-20T10:08:37.680Z,97.14
2022-09-20T10:11:24.038Z,96.06
2022-09-20T10:14:13.497Z,93.47
2022-09-20T10:16:44.666Z,94.57
2022-09-20T10:19:43.080Z,95.15
2022-09-20T10:22:35.236Z,92.99
2022-09-20T10:25:23.153Z,93.93
2022-09-20T10:28:30.032Z,94.18
2022-09-20T10:31:06.849Z,94.13
2022-09-20T10:34:07.001Z,94.08
2022-09-20T10:36:45.455Z,94.17
2022-09-20T10:39:43.338Z,93.91
2022-09-20T10:42:44.279Z,91.28
2022-09-20T10:45:59.116Z,92.40
2022-09-20T10:48:24.764Z,91.09
2022-09-20T10:50:59.432Z,92.09
2022-09-20T10:53:52.132Z,90.50
2022-09-20T10:56:25.595Z,89.58
2022-09-20T10:59:09.667Z,89.09
2022-09-20T11:01:51.995Z,89.29
2022-09-20T11:04:46.046Z,89.03
2022-09-20T11:07:19.539Z,89.15
2022-09-20T11:09:52.686Z,89.65
2022-09-20T11:12:33.532Z,89.23
2022-09-20T11:15:15.915Z,87.43
2022-09-20T11:18:03.151Z,87.04
2022-09-20T11:20:37.562Z,86.46
2022-09-20T11:23:39.831Z,86.66
2022-09-20T11:26:14.659Z,85.92
2022-09-20T11:28:52.372Z,85.71
2022-09-20T11:31:29.849Z,85.84
2022-09-20T11:34:05.211Z,84.36
2022-09-20T11:36:57.324Z,84.77
2022-09-20T11:39:55.275Z,82.42
2022-09-20T11:42:28.574Z,81.39
2022-09-20T11:44:56.993Z,81.71
2022-09-20T11:47:53.209Z,83.98
2022-09-20T11:50:50.640Z,84.92
2022-09-20T11:53:37.235Z,82.52
2022-09-20T11:56:13.875Z,81.41
2022-09-20T11:58:48.301Z,80.11
2022-09-20T12:01:28.542Z,78.91
2022-09-20T12:04:21.014Z,78.87
2022-09-20T12:06:56.700Z,79.05
2022-09-20T12:09:29.592Z,79.22
2022-09-20T12:11:59.598Z,79.77
2022-09-20T12:14:32.227Z,79.80
2022-09-20T12:17:00.598Z,80.32
2022-09-20T12:19:32.825Z,80.60
2022-09-20T12:22:00.522Z,79.81
2022-09-20T12:24:34.706Z,78.84
2022-09-20T12:27:21.435Z,79.48
2022-09-20T12:30:20.022Z,79.99
2022-09-20T12:32:56.320Z,76.57
2022-09-20T12:35:40.169Z,75.88
2022-09-20T12:38:28.264Z,75.32
2022-09-20T12:40:59.086Z,76.66
2022-09-20T12:43:29.715Z,75.37
2022-09-20T12:46:03.843Z,71.75
2022-09-20T12:48:37.925Z,72.97
2022-09-20T12:51:47.990Z,72.65
2022-09-20T12:54:16.777Z,73.87
2022-09-20T12:56:46.708Z,74.08
2022-09-20T12:59:24.616Z,72.90
2022-09-20T13:01:52.512Z,73.99
2022-09-20T13:04:52.994Z,74.79
2022-09-20T13:07:48.004Z,75.02
2022-09-20T13:10:37.475Z,75.42
2022-09-20T13:13:20.093Z,75.03
2022-09-20T13:15:50.451Z,75.14
2022-09-20T13:18:19.601Z,75.93
2022-09-20T13:20:47.372Z,76.39
2022-09-20T13:23:28.556Z,76.31
2022-09-20T13:25:58.156Z,76.59
2022-09-20T13:28:49.235Z,76.55
2022-09-20T13:31:37.403Z,76.94
2022-09-20T13:34:22.622Z,76.92
2022-09-20T13:36:58.220Z,76.87
2022-09-20T13:39:35.309Z,77.55
2022-09-20T13:42:12.518Z,77.41
2022-09-20T13:44:43.442Z,77.67
2022-09-20T13:47:28.878Z,77.36
2022-09-20T13:50:02.972Z,77.39
2022-09-20T13:52:32.261Z,77.56
2022-09-20T13:55:01.126Z,77.63
2022-09-20T13:57:30.235Z,77.39
2022-09-20T13:59:58.738Z,76.82
2022-09-20T14:02:30.935Z,76.28
2022-09-20T14:05:07.235Z,76.18
2022-09-20T14:07:36.833Z,76.01
2022-09-20T14:10:05.098Z,76.35
2022-09-20T14:12:33.702Z,75.56
2022-09-20T14:15:08.565Z,75.91
2022-09-20T14:17:36.789Z,75.57
2022-09-20T14:20:06.276Z,74.98
2022-09-20T14:22:34.131Z,75.03
2022-09-20T14:25:27.734Z,75.12
2022-09-20T14:28:18.740Z,75.35
2022-09-20T14:30:47.726Z,75.86
2022-09-20T14:33:20.737Z,75.62
2022-09-20T14:35:51.475Z,75.90
2022-09-20T14:38:24.257Z,75.70
2022-09-20T14:40:52.909Z,75.79
2022-09-20T14:43:26.546Z,75.86
2022-09-20T14:45:57.341Z,76.04
2022-09-20T14:48:25.098Z,75.76
2022-09-20T14:51:12.390Z,75.03
2022-09-20T14:53:40.184Z,76.07
2022-09-20T14:56:11.465Z,76.12
2022-09-20T14:59:11.879Z,75.58
2022-09-20T15:01:54.103Z,74.90
2022-09-20T15:04:23.479Z,74.40
2022-09-20T15:06:52.275Z,74.17
2022-09-20T15:09:21.885Z,74.05
2022-09-20T15:12:06.906Z,72.83
2022-09-20T15:14:37.912Z,72.89
2022-09-20T15:17:06.893Z,72.86
2022-09-20T15:19:34.736Z,72.87
2022-09-20T15:22:02.523Z,72.43
2022-09-20T15:24:30.293Z,72.22
2022-09-20T15:26:58.051Z,72.32
2022-09-20T15:29:26.130Z,72.44
2022-09-20T15:31:53.961Z,72.04
2022-09-20T15:34:21.979Z,71.87
2022-09-20T15:36:50.731Z,71.34
2022-09-20T15:39:18.538Z,72.05
2022-09-20T15:41:47.009Z,72.32
2022-09-20T15:44:16.891Z,72.18
2022-09-20T15:46:44.647Z,72.49
2022-09-20T15:49:12.629Z,73.35
2022-09-20T15:51:40.435Z,73.47
2022-09-20T15:54:13.072Z,73.58
2022-09-20T15:56:41.417Z,73.35
2022-09-20T15:59:11.708Z,73.86
2022-09-20T16:01:45.591Z,73.93
2022-09-20T16:04:19.446Z,74.08
2022-09-20T16:06:49.434Z,74.30
2022-09-20T16:09:18.627Z,74.19
2022-09-20T16:11:48.219Z,74.34
2022-09-20T16:14:16.348Z,74.54
2022-09-20T16:16:44.132Z,74.67
2022-09-20T16:19:17.984Z,74.78
2022-09-20T16:22:04.321Z,74.62
2022-09-20T16:24:34.695Z,74.78
2022-09-20T16:27:06.247Z,75.16
2022-09-20T16:29:34.493Z,75.33
2022-09-20T16:32:03.719Z,75.50
2022-09-20T16:34:34.434Z,75.69
2022-09-20T16:37:15.817Z,76.10
2022-09-20T16:39:44.713Z,76.17
2022-09-20T16:42:13.225Z,76.22
2022-09-20T16:44:42.945Z,76.24
2022-09-20T16:47:16.301Z,76.38
2022-09-20T16:49:45.589Z,76.60
2022-09-20T16:52:13.493Z,76.80
2022-09-20T16:54:41.466Z,76.84
2022-09-20T16:57:09.506Z,76.98
2022-09-20T16:59:37.256Z,76.95
2022-09-20T17:02:04.985Z,77.21
2022-09-20T17:04:32.824Z,77.27
2022-09-20T17:07:01.813Z,77.33
2022-09-20T17:09:29.647Z,77.44
2022-09-20T17:11:57.487Z,77.64
2022-09-20T17:14:25.806Z,78.00
2022-09-20T17:16:53.626Z,78.52
2022-09-20T17:19:21.417Z,78.75
2022-09-20T17:21:50.856Z,78.88
2022-09-20T17:24:20.795Z,79.31
2022-09-20T17:26:50.658Z,79.75
2022-09-20T17:29:20.208Z,79.95
2022-09-20T17:31:55.054Z,80.02
2022-09-20T17:34:25.364Z,80.43
2022-09-20T17:36:56.692Z,80.35
2022-09-20T17:39:24.531Z,80.93
2022-09-20T17:41:52.602Z,80.79
2022-09-20T17:44:20.747Z,81.23
2022-09-20T17:46:50.685Z,81.54
2022-09-20T17:49:20.755Z,81.14
2022-09-20T17:51:49.736Z,81.10
2022-09-20T17:54:19.119Z,81.57
2022-09-20T17:56:50.289Z,81.74
2022-09-20T17:59:20.017Z,82.01
2022-09-20T18:01:50.508Z,82.13
2022-09-20T18:04:20.977Z,82.37
2022-09-20T18:06:51.149Z,82.14
2022-09-20T18:09:24.839Z,82.43
2022-09-20T18:11:55.050Z,82.31
2022-09-20T18:14:25.792Z,82.58
2022-09-20T18:17:01.257Z,82.53
2022-09-20T18:19:33.774Z,82.73
2022-09-20T18:22:03.241Z,82.77
2022-09-20T18:24:32.270Z,82.91
2022-09-20T18:27:04.490Z,83.10
2022-09-20T18:29:36.684Z,83.13
2022-09-20T18:32:05.441Z,82.99
2022-09-20T18:34:34.127Z,82.95
2022-09-20T18:37:03.835Z,82.96
2022-09-20T18:39:33.496Z,83.28
2022-09-20T18:42:03.255Z,83.51
2022-09-20T18:44:33.748Z,83.71
2022-09-20T18:47:05.743Z,83.85
2022-09-20T18:49:34.344Z,83.50
2022-09-20T18:52:03.024Z,83.51
2022-09-20T18:54:33.251Z,83.61
2022-09-20T18:57:01.297Z,83.76
2022-09-20T18:59:29.387Z,83.88
2022-09-20T19:02:24.362Z,84.33
2022-09-20T19:05:05.709Z,84.30
2022-09-20T19:08:01.060Z,84.32
2022-09-20T19:10:51.388Z,84.60
2022-09-20T19:13:25.294Z,84.83
2022-09-20T19:15:53.086Z,84.95
2022-09-20T19:18:46.503Z,84.99
2022-09-20T19:21:20.819Z,85.10
2022-09-20T19:24:26.675Z,85.25
2022-09-20T19:26:54.622Z,85.42
2022-09-20T19:29:26.815Z,85.37
2022-09-20T19:31:57.683Z,85.46
2022-09-20T19:34:28.390Z,85.39
2022-09-20T19:37:28.092Z,85.54
2022-09-20T19:40:29.905Z,85.79
2022-09-20T19:43:28.622Z,85.91
2022-09-20T19:46:26.993Z,86.43
2022-09-20T19:49:14.357Z,86.60
2022-09-20T19:51:44.284Z,86.31
2022-09-20T19:54:14.889Z,86.49
2022-09-20T19:56:52.497Z,86.86
2022-09-20T19:59:23.205Z,87.12
2022-09-20T20:01:52.566Z,87.11
2022-09-20T20:04:21.317Z,87.28
2022-09-20T20:06:57.901Z,87.12
2022-09-20T20:09:54.921Z,87.11
2022-09-20T20:12:34.171Z,87.44
2022-09-20T20:15:01.888Z,87.33
2022-09-20T20:18:08.419Z,87.24
2022-09-20T20:20:45.880Z,87.68
2022-09-20T20:23:28.617Z,87.63
2022-09-20T20:26:03.130Z,87.75
2022-09-20T20:28:30.959Z,87.81
2022-09-20T20:31:02.040Z,87.85
2022-09-20T20:33:32.872Z,87.91
2022-09-20T20:36:02.200Z,87.88
2022-09-20T20:38:36.900Z,87.99
2022-09-20T20:41:05.177Z,87.90
2022-09-20T20:43:35.822Z,87.97
2022-09-20T20:46:05.436Z,88.19
2022-09-20T20:48:33.276Z,87.99
2022-09-20T20:51:18.465Z,88.18
2022-09-20T20:53:50.101Z,88.80
2022-09-20T20:56:26.422Z,88.70
2022-09-20T20:58:57.719Z,88.83
2022-09-20T21:01:45.916Z,88.69
2022-09-20T21:04:15.687Z,88.71
2022-09-20T21:06:44.066Z,89.10
2022-09-20T21:09:13.442Z,89.06
2022-09-20T21:11:44.893Z,88.98
2022-09-20T21:14:13.095Z,89.55
2022-09-20T21:16:43.224Z,89.22
2022-09-20T21:19:15.140Z,89.42
2022-09-20T21:21:45.189Z,89.38
2022-09-20T21:24:17.741Z,89.22
2022-09-20T21:26:46.843Z,89.94
2022-09-20T21:29:16.117Z,89.87
2022-09-20T21:31:46.598Z,89.70
2022-09-20T21:34:16.254Z,90.03
2022-09-20T21:36:46.803Z,89.99
2022-09-20T21:39:14.616Z,89.99
2022-09-20T21:41:42.486Z,90.30
2022-09-20T21:44:10.752Z,90.22
2022-09-20T21:46:41.270Z,90.33
2022-09-20T21:49:11.983Z,90.62
2022-09-20T21:51:42.618Z,91.24
2022-09-20T21:54:10.908Z,90.69
2022-09-20T21:56:41.116Z,90.55
2022-09-20T21:59:09.509Z,91.02
2022-09-20T22:01:39.230Z,91.43
2022-09-20T22:04:09.696Z,91.00
2022-09-20T22:06:40.306Z,91.02
2022-09-20T22:09:10.841Z,91.03
2022-09-20T22:11:44.826Z,90.98
2022-09-20T22:14:14.437Z,91.04
2022-09-20T22:16:43.816Z,91.31
2022-09-20T22:19:13.716Z,91.34
2022-09-20T22:21:44.046Z,91.28
2022-09-20T22:24:14.264Z,91.22
2022-09-20T22:26:44.798Z,91.21
2022-09-20T22:29:13.309Z,91.25
2022-09-20T22:31:45.494Z,91.28
2022-09-20T22:34:19.268Z,91.37
2022-09-20T22:36:48.517Z,91.55
2022-09-20T22:39:17.176Z,91.89
2022-09-20T22:41:47.762Z,91.88
2022-09-20T22:44:15.581Z,92.10
2022-09-20T22:46:44.286Z,92.01
2022-09-20T22:49:12.033Z,92.19
2022-09-20T22:51:39.849Z,92.47
2022-09-20T22:54:10.654Z,92.41
2022-09-20T22:56:41.457Z,92.44
2022-09-20T22:59:14.330Z,92.69
2022-09-20T23:01:45.177Z,92.84
2022-09-20T23:04:17.830Z,93.03
2022-09-20T23:06:55.166Z,92.52
2022-09-20T23:09:26.246Z,92.68
2022-09-20T23:11:54.221Z,92.86
2022-09-20T23:14:23.402Z,92.97
2022-09-20T23:16:51.413Z,92.63
2022-09-20T23:19:19.259Z,93.04
2022-09-20T23:21:47.042Z,93.17
2022-09-20T23:24:16.545Z,93.01
2022-09-20T23:26:45.470Z,92.96
2022-09-20T23:29:15.999Z,93.26
2022-09-20T23:31:47.232Z,93.14
2022-09-20T23:34:17.578Z,93.04
2022-09-20T23:36:46.663Z,93.21
2022-09-20T23:39:14.915Z,93.45
2022-09-20T23:41:46.964Z,93.28
2022-09-20T23:44:16.472Z,93.78
2022-09-20T23:46:44.209Z,93.85
2022-09-20T23:49:12.030Z,93.62
2022-09-20T23:51:39.826Z,93.70
2022-09-20T23:54:07.642Z,93.89
2022-09-20T23:56:36.394Z,94.26
2022-09-20T23:59:04.165Z,94.22
